Weather observations for the past three days for
Perry-Foley Airport
Imperial (Metric)
Date Time (edt) Wind (mph) Vis. (mi.) Weather Sky Cond. Temperature (ºF) Relative Humidity Wind Chill (°F) Heat Index (°F) Pressure Precipitation (in)
Air Dwpt 6 hour altimeter (in) sea level (mb) 1 hr 3 hr 6 hr
Max. Min.
07 04:15 SE 3 0.25 Fog OVC003 61.2 60.4 98% 29.93 0.0
07 03:55 Calm 0.25 Fog OVC003 60.3 59.4 97% 29.93 0.0
07 03:35 Calm 0.50 Fog OVC001 59.5 58.6 97% 29.93 0.0
07 03:15 Calm 0.50 Fog OVC001 62.1 61.2 97% 29.94 0.0
07 02:55 Calm 0.50 Fog OVC001 61 60.1 97% 29.95 0.0
07 02:35 Calm 0.50 Fog OVC001 61.7 60.8 97% 29.95 0.0
07 02:15 Calm 0.25 Fog OVC001 63.5 62.6 97% 29.96 0.0
07 01:55 Calm 0.50 Fog OVC003 63.7 62.8 76.3 63.7 97% 29.97 0.0
07 01:35 Calm 0.25 Fog OVC003 66.9 66 97% 29.98 0.0
07 01:15 Calm 0.50 Fog OVC005 66.2 65.3 97% 29.98 0.0
07 00:55 Calm 0.50 Fog OVC005 64.6 63.7 97% 29.98 0.0
07 00:35 Calm 0.50 Fog BKN005 66.7 65.8 97% 29.99 0.0
07 00:15 Calm 1.00 Fog/Mist BKN005 66 65.1 97% 29.99 0.0
06 23:55 Calm 0.75 Fog/Mist BKN005 67.3 66.4 97% 29.99 0.0
06 23:35 Calm 0.75 Fog/Mist OVC005 68 67.1 97% 30 0.0
06 23:15 Calm 7.00 Partly Cloudy SCT005 68.4 66.9 95% 29.99 0.0
06 22:55 Calm 10.00 Fair CLR 69.8 68.2 95% 29.99 0.0
06 22:35 S 3 10.00 Fair CLR 70.2 68.4 94% 29.99 0.0
06 22:15 S 3 10.00 Fair CLR 70.5 68.2 92% 29.99 0.0
06 21:55 S 6 10.00 Fair CLR 70.2 68 93% 29.99 0.0
06 21:35 S 5 10.00 Fair CLR 69.3 66.9 92% 30 0.0
06 21:15 S 5 10.00 Fair CLR 71.6 67.8 88% 30 0.0
06 20:55 S 3 10.00 Fair CLR 72.1 68.2 87% 30 0.0
06 20:35 Calm 10.00 Fair CLR 74.1 68.2 82% 30 0.0
06 20:15 S 3 10.00 Fair CLR 74.7 68 80% 29.99 0.0
06 19:55 S 6 10.00 Fair CLR 76.5 67.8 85.5 76.5 75% 78 29.98 0.0
06 19:35 SW 9 10.00 Fair CLR 78.1 67.1 69% 80 29.98 0.0
06 18:55 S 9 10.00 Fair CLR 80.4 65.8 61% 82 29.99 0.0
06 18:35 S 9 10.00 Fair CLR 80.8 65.3 59% 83 29.99 0.0
06 18:15 SW 8 10.00 Fair CLR 81.3 67.1 62% 84 30 0.0
06 17:55 SW 9 10.00 Fair CLR 81 66.7 62% 83 30 0.0
06 17:35 SW 14 10.00 Partly Cloudy SCT029 82 66.4 59% 84 30.01 0.0
06 17:15 SW 9 10.00 Partly Cloudy SCT029 82.9 66.6 58% 85 30.01 0.0
06 16:55 SW 10 10.00 Partly Cloudy SCT029 SCT034 82.6 67.5 60% 85 30.01 0.0
06 16:35 S 13 10.00 Mostly Cloudy SCT029 BKN034 82.8 67.5 60% 86 30.01 0.0
06 16:15 SW 14 G 17 10.00 Mostly Cloudy BKN029 84 67.8 58% 87 30.02 0.0
06 15:55 SW 10 G 20 10.00 Partly Cloudy SCT029 83.7 66.6 56% 86 30.02 0.0
06 15:35 SW 15 G 18 10.00 Mostly Cloudy BKN029 BKN035 82.6 68.2 62% 86 30.03 0.0
06 15:15 SW 13 10.00 Mostly Cloudy BKN029 BKN037 83.3 67.6 59% 86 30.03 0.0
06 14:35 SW 15 G 18 10.00 Mostly Cloudy BKN031 84.4 68.5 59% 88 30.04 0.0
06 14:15 S 12 G 18 10.00 Mostly Cloudy BKN029 BKN036 84 67.6 58% 87 30.04 0.0
06 13:55 S 14 G 18 10.00 Mostly Cloudy SCT027 BKN039 84.2 67.3 84.9 64.6 57% 87 30.05 0.0
06 13:35 SW 12 G 18 10.00 Partly Cloudy SCT027 83.7 68.4 60% 87 30.05 0.0
06 13:15 SW 14 G 17 10.00 Partly Cloudy SCT029 84 68.5 60% 87 30.05 0.0
06 12:55 SW 10 G 21 10.00 Partly Cloudy SCT029 SCT037 84.4 68.2 58% 88 30.05 0.0
06 12:35 S 12 G 17 10.00 Partly Cloudy SCT037 83.5 68.5 61% 87 30.05 0.0
06 12:15 S 15 G 21 10.00 Partly Cloudy SCT026 SCT033 83.8 68.7 60% 87 30.05 0.0
06 11:55 S 13 10.00 Mostly Cloudy SCT026 BKN033 83.7 68.9 61% 87 30.05 0.0
06 11:35 SW 14 G 17 10.00 Partly Cloudy SCT022 82.4 69.3 65% 86 30.05 0.0
06 11:15 S 13 G 18 10.00 Mostly Cloudy BKN020 80.2 68.9 68% 83 30.04 0.0
06 10:55 S 13 G 17 10.00 Overcast OVC020 81 69.6 69% 84 30.03 0.0
06 10:35 S 10 10.00 Overcast OVC018 79.2 69.8 73% 82 30.03 0.0
06 10:15 SE 7 10.00 Partly Cloudy SCT016 77.4 69.4 77% 79 30.03 0.0
06 09:55 S 7 10.00 Fair CLR 75.9 69.3 80% 77 30.03 0.0
06 09:35 SE 3 10.00 Fair CLR 72.9 68.4 86% 30.03 0.0
06 09:15 SE 3 10.00 Fair CLR 70.5 67.1 89% 30.02 0.0
06 08:55 SE 3 10.00 Fair CLR 68.4 66.4 93% 30.02 0.0
06 08:35 SE 3 10.00 Fair CLR 66.7 65.5 96% 30.01 0.0
06 08:15 SE 3 10.00 Fair CLR 65.8 64.8 96% 30.01 0.0
06 07:55 Calm 10.00 Fair CLR 64.4 63.5 65.5 60.3 97% 30 0.0
06 07:35 SE 3 7.00 Fair CLR 63.5 62.6 97% 29.99 0.0
06 07:15 SE 3 4.00 Fog/Mist CLR 62.2 61.3 97% 29.99 0.0
06 06:55 E 3 2.00 Fog/Mist SCT004 SCT009 61.9 61 97% 29.99 0.0
06 06:35 E 3 0.50 Fog BKN004 60.8 59.9 97% 29.98 0.0
06 06:15 Calm 0.75 Fog/Mist BKN004 61.7 60.8 97% 29.98 0.0
06 05:55 Calm 0.50 Fog OVC004 61.7 60.8 97% 29.99 0.0
06 05:35 Calm 0.50 Fog OVC004 62.2 61.3 97% 29.98 0.0
06 05:15 Calm 0.50 Fog OVC004 62.4 61.5 97% 29.98 0.0
06 04:55 Calm 0.50 Fog BKN004 62.1 61.2 97% 29.99 0.0
06 04:35 Calm 3.00 Fog/Mist CLR 64.6 63.7 97% 29.99 0.0
06 04:15 Calm 5.00 Fog/Mist CLR 64.4 63.1 96% 29.99 0.0
06 03:55 SE 5 7.00 Fair CLR 63.7 62.6 96% 29.99 0.0
06 03:35 SE 3 10.00 Fair CLR 64.4 63.3 96% 29.99 0.0
06 03:15 Calm 10.00 Mostly Cloudy BKN015 64.6 63.5 96% 30 0.0
06 02:55 E 3 10.00 Overcast OVC013 65.3 64 96% 29.99 0.0
06 02:35 SE 5 10.00 Mostly Cloudy BKN009 65.5 64.6 97% 29.99 0.0
06 01:55 E 6 10.00 Partly Cloudy SCT003 SCT009 63.3 62.4 74.8 59.4 97% 30 0.0
06 01:35 E 5 5.00 Fog/Mist CLR 60.8 59.9 97% 30.01 0.0
06 01:15 SE 3 7.00 Fair CLR 59.9 59 97% 30.01 0.0
06 00:35 Calm 1.50 Fog/Mist SCT007 61.5 60.6 97% 30.01 0.0
06 00:15 Calm 0.75 Fog/Mist BKN007 62.8 61.9 97% 30.01 0.0
05 23:55 Calm 3.00 Fog/Mist CLR 62.2 61.3 97% 30.02 0.0
05 23:35 E 3 0.75 Fog/Mist VV005 62.6 61.5 96% 30.02 0.0
05 23:15 Calm 3.00 Fog/Mist CLR 64.4 63.3 96% 30.02 0.0
05 22:55 Calm 10.00 Fair CLR 64.9 63 93% 30.01 0.0
05 22:35 Calm 10.00 Fair CLR 64.6 63.3 96% 30.01 0.0
05 22:15 Calm 10.00 Fair CLR 65.3 64 96% 30 0.0
05 21:55 Calm 10.00 Fair CLR 66.6 64.4 93% 30 0.0
05 21:35 Calm 10.00 Fair CLR 66.9 64 91% 29.99 0.0
05 21:15 Calm 10.00 Fair CLR 68.5 64.4 87% 29.99 0.0
05 20:55 Calm 10.00 Fair CLR 69.4 63.9 83% 29.98 0.0
05 20:35 Calm 10.00 Fair CLR 72.3 64.4 76% 29.98 0.0
05 20:15 SW 5 10.00 Fair CLR 72.7 64.4 75% 29.98 0.0
05 19:55 SW 7 10.00 Fair CLR 75 64.4 83.5 75 70% 77 29.98 0.0
05 19:35 SW 7 10.00 Fair CLR 76.8 64.4 66% 79 29.98 0.0
05 19:15 SW 8 10.00 Fair CLR 77.7 64.4 64% 80 29.98 0.0
05 18:55 SW 8 10.00 Fair CLR 78.8 63.7 60% 80 29.98 0.0
05 18:35 SW 9 10.00 Fair CLR 79.3 62.8 57% 81 29.98 0.0
05 18:15 SW 10 10.00 Fair CLR 79.9 62.6 56% 81 29.98 0.0
05 17:55 SW 13 10.00 Fair CLR 80.6 62.2 54% 82 29.98 0.0
05 17:35 SW 12 10.00 Fair CLR 81.3 61 50% 82 29.97 0.0
05 17:15 SW 13 G 17 10.00 Fair CLR 82.4 60.6 48% 83 29.98 0.0
05 16:55 S 9 G 18 10.00 Fair CLR 82.9 60.3 46% 83 29.98 0.0
05 16:35 S 12 10.00 Fair CLR 82.6 58.6 44% 83 29.99 0.0
05 16:15 SW 10 10.00 Fair CLR 82.9 57.9 43% 83 29.99 0.0
05 15:55 S 13 10.00 Fair CLR 82.8 58.6 44% 83 30 0.0
05 15:35 SW 14 G 17 10.00 Fair CLR 82.8 59.2 45% 83 30 0.0
05 15:15 SW 9 G 21 10.00 Partly Cloudy SCT039 83.1 60.6 47% 83 30.01 0.0
05 14:55 SW 15 G 20 10.00 Fair CLR 82.2 62.2 51% 83 30.01 0.0
05 14:35 SW 10 10.00 Partly Cloudy SCT040 SCT050 82.8 56.1 40% 82 30.01 0.0
05 14:15 SW 13 G 18 10.00 Partly Cloudy SCT040 SCT048 83.3 61.5 48% 84 30.01 0.0
05 13:55 SW 12 10.00 Fair CLR 83.5 61.5 83.5 63.1 48% 84 30.02 0.0
05 13:35 S 13 10.00 Partly Cloudy SCT035 SCT044 SCT050 82.6 62.1 50% 83 30.02 0.0
05 13:15 S 8 10.00 Mostly Cloudy SCT037 BKN050 BKN060 81.5 62.1 52% 82 30.03 0.0
05 12:55 SW 9 10.00 Mostly Cloudy SCT035 SCT041 BKN050 78.8 62.4 57% 80 30.03 0.0
05 12:35 S 9 10.00 Partly Cloudy SCT036 81.7 63.1 53% 83 30.03 0.0
05 12:15 S 12 10.00 Partly Cloudy SCT038 SCT048 SCT055 80.2 62.4 55% 82 30.04 0.0
05 11:55 SW 9 10.00 Mostly Cloudy BKN036 BKN046 BKN050 79.9 61.7 54% 81 30.04 0.0
05 11:35 S 9 10.00 Mostly Cloudy BKN034 BKN040 BKN047 77.7 62.6 60% 79 30.04 0.0
05 11:15 SE 5 10.00 Mostly Cloudy BKN032 BKN041 BKN049 78.8 63.5 60% 80 30.05 0.0
05 10:55 S 6 10.00 Mostly Cloudy SCT027 BKN036 BKN050 76.3 62.6 63% 78 30.04 0.0
05 10:35 SE 9 10.00 Mostly Cloudy SCT027 BKN034 BKN050 76.5 63.1 64% 78 30.03 0.0
05 10:15 SE 7 10.00 Partly Cloudy SCT036 SCT041 SCT048 75.9 62.8 64% 78 30.04 0.0
05 09:55 SE 8 10.00 Mostly Cloudy SCT030 BKN040 BKN050 73.8 61.9 67% 30.03 0.0
05 09:35 SE 7 10.00 Partly Cloudy SCT041 SCT050 73.6 61 65% 30.03 0.0
05 09:15 SE 8 10.00 Partly Cloudy SCT039 72.9 60.4 65% 30.03 0.0
05 08:55 SE 10 10.00 Partly Cloudy SCT043 70.7 60.4 70% 30.02 0.0
05 08:35 SE 7 10.00 Partly Cloudy SCT045 67.3 59.4 76% 30.02 0.0
05 08:15 E 5 10.00 Fair CLR 65.1 58.3 79% 30.02 0.0
05 07:55 SE 5 10.00 Partly Cloudy SCT060 63 57.6 63 53.4 83% 30.01 0.0
05 07:35 SE 6 10.00 Partly Cloudy SCT060 61 56.7 86% 30 0.0
05 07:15 SE 5 10.00 Partly Cloudy SCT060 58.3 54.9 88% 30 0.0
05 06:55 E 3 10.00 Partly Cloudy SCT060 56.8 53.6 89% 30 0.0
05 06:35 Calm 10.00 Fair CLR 56.8 53.2 88% 30 0.0
05 06:15 Calm 10.00 Fair CLR 55 51.8 89% 29.98 0.0
05 05:55 Calm 10.00 Fair CLR 55.4 52.3 90% 29.98 0.0
05 05:35 Calm 10.00 Fair CLR 55.2 53.4 94% 29.98 0.0
05 05:15 Calm 10.00 Fair CLR 55 52.5 91% 29.98 0.0
05 04:55 Calm 10.00 Fair CLR 54.5 51.8 91% 29.98 0.0
05 04:35 Calm 10.00 Fair CLR 54.9 52.2 91% 29.98 0.0
05 04:15 Calm 10.00 Fair CLR 54.5 51.3 89% 29.98 0.0
05 03:55 Calm 10.00 Fair CLR 53.4 51.3 92% 29.98 0.0
05 03:35 Calm 10.00 Fair CLR 54.5 52.2 92% 29.98 0.0
05 03:15 Calm 10.00 Fair CLR 54.3 51.6 91% 29.98 0.0
05 02:55 Calm 10.00 Fair CLR 53.8 51.1 91% 29.98 0.0
05 02:35 Calm 10.00 Fair CLR 55.6 51.8 87% 30 0.0
05 02:15 Calm 10.00 Fair CLR 55.6 51.3 86% 30.01 0.0
05 01:55 Calm 10.00 Fair CLR 56.3 51.6 72.9 54.7 84% 30.01 0.0
05 01:35 Calm 10.00 Fair CLR 54.9 51.4 88% 30.01 0.0
05 01:15 Calm 10.00 Fair CLR 57.7 52.5 83% 30.01 0.0
05 00:55 Calm 10.00 Fair CLR 57.9 53.2 85% 30.02 0.0
05 00:35 SE 3 10.00 Partly Cloudy SCT080 59.5 53.2 80% 30.01 0.0
05 00:15 NE 7 10.00 Fair CLR 59.4 54.1 83% 30.01 0.0
04 23:55 Calm 10.00 Fair CLR 55.9 52.3 88% 30.01 0.0
04 23:35 Calm 10.00 Fair CLR 57 52.9 86% 30.01 0.0
04 23:15 Calm 10.00 Fair CLR 58.5 53.1 82% 30.01 0.0
04 22:55 Calm 10.00 Fair CLR 59.7 53.4 80% 30 0.0
04 22:35 Calm 10.00 Fair CLR 59.5 54.1 82% 30 0.0
04 22:15 Calm 10.00 Fair CLR 61 52.2 73% 30 0.0
04 21:55 Calm 10.00 Fair CLR 61.2 54 77% 30 0.0
04 21:35 Calm 10.00 Fair CLR 63.3 53.1 69% 30 0.0
04 21:15 Calm 10.00 Fair CLR 65.1 51.3 61% 29.99 0.0
04 20:55 Calm 10.00 Fair CLR 66.4 50.9 58% 29.99 0.0
04 20:35 Calm 10.00 Fair CLR 68.7 50.7 53% 29.99 0.0
04 20:15 SW 3 10.00 Fair CLR 70.5 50.2 49% 29.98 0.0
04 19:55 SW 6 10.00 Fair CLR 73 49.5 83.3 73 43% 29.98 0.0
04 19:35 W 9 10.00 Fair CLR 74.7 49.8 42% 29.98 0.0
04 19:15 SW 9 10.00 Fair CLR 76.1 49.8 40% 78 29.98 0.0
04 18:55 SW 9 10.00 Fair CLR 77 48.7 37% 78 29.98 0.0
04 18:15 SW 12 10.00 Fair CLR 78.8 48.4 34% 79 29.97 0.0
04 17:55 SW 13 10.00 Fair CLR 79.5 48.4 34% 79 29.96 0.0
04 17:35 SW 13 G 17 10.00 Fair CLR 80.6 48.7 33% 80 29.97 0.0
04 17:15 SW 13 G 17 10.00 Fair CLR 81.1 48.4 32% 80 29.97 0.0
04 16:55 W 8 10.00 Fair CLR 82 48.7 31% 81 29.97 0.0
04 16:35 SW 8 10.00 Fair CLR 82 48 31% 81 29.97 0.0
04 16:15 S 3 10.00 Fair CLR 82.4 40.1 22% 80 29.98 0.0
04 15:55 E 6 10.00 Fair CLR 83.3 41.2 23% 81 29.99 0.0
04 15:35 S 6 10.00 Fair CLR 82.9 42.8 24% 81 30 0.0
04 15:15 Calm 10.00 Fair CLR 81.7 42.4 25% 80 30 0.0
04 14:55 Calm 10.00 Fair CLR 81.5 43.5 26% 80 30.01 0.0
04 14:35 SE 7 10.00 Fair CLR 80.8 43 26% 79 30.02 0.0
04 14:15 S 5 10.00 Fair CLR 80.2 41.9 26% 79 30.03 0.0
04 13:55 NE 9 10.00 Fair CLR 81 42.3 81 51.3 25% 79 30.03 0.0
04 13:35 W 6 10.00 Fair CLR 80.4 44.2 28% 79 30.04 0.0
04 13:15 SE 5 10.00 Fair CLR 79 43.9 29% 79 30.05 0.0
04 12:55 Calm 10.00 Fair CLR 77.7 42.3 28% 78 30.05 0.0
04 12:35 Calm 10.00 Fair CLR 78.4 44.6 30% 78 30.06 0.0
04 12:15 E 5 10.00 Fair CLR 77.4 45 32% 78 30.07 0.0
04 11:55 S 3 10.00 Fair CLR 76.5 43.7 31% 78 30.08 0.0
04 11:35 NE 3 10.00 Fair CLR 76.3 43.7 31% 77 30.08 0.0
04 11:15 E 5 10.00 Fair CLR 75.6 45.3 34% 77 30.08 0.0
04 10:55 E 6 10.00 Fair CLR 75 44.4 34% 77 30.08 0.0
04 10:35 NE 7 10.00 Fair CLR 74.3 48.4 40% 30.08 0.0
04 10:15 Calm 10.00 Fair CLR 72.1 53.8 53% 30.08 0.0
04 09:55 NE 5 10.00 Fair CLR 70.7 54.7 57% 30.09 0.0
04 09:35 E 3 10.00 Fair CLR 68.4 55 63% 30.08 0.0
04 09:15 Calm 10.00 Fair CLR 65.3 54.7 69% 30.08 0.0
04 08:55 E 3 10.00 Fair CLR 62.2 53.2 73% 30.09 0.0
04 08:35 Calm 10.00 Fair CLR 58.8 51.6 77% 30.08 0.0
04 08:15 Calm 10.00 Fair CLR 55.2 50 83% 30.08 0.0
04 07:55 Calm 10.00 Fair CLR 51.1 48.7 51.4 45.9 92% 30.08 0.0
04 07:35 Calm 10.00 Fair CLR 47.3 46.4 97% 30.08 0.0
04 07:15 Calm 10.00 Fair CLR 46.4 45.5 97% 30.07 0.0
04 06:55 Calm 10.00 Fair CLR 46.4 45.5 97% 30.07 0.0
04 06:35 Calm 10.00 Fair CLR 46.2 45.3 97% 30.07 0.0
04 06:15 Calm 10.00 Fair CLR 46.4 45.1 95% 30.06 0.0
04 05:55 Calm 10.00 Fair CLR 46.9 45.9 96% 30.06 0.0
04 05:35 Calm 10.00 Fair CLR 47.1 45.9 95% 30.06 0.0
04 05:15 Calm 10.00 Fair CLR 46.6 45.1 95% 30.06 0.0
04 04:55 Calm 10.00 Fair CLR 47.5 46.4 96% 30.07 0.0
04 04:35 Calm 10.00 Fair CLR 47.7 46 94% 30.06 0.0
Date Time (edt) Wind (mph) Vis. (mi.) Weather Sky Cond. Air Dwpt Max. Min. Relative Humidity Wind Chill (°F) Heat Index (°F) altimeter (in) sea level (mb) 1 hr 3 hr 6 hr
6 hour
Temperature (ºF) Pressure Precipitation (in)